UAL58 KSFO-EDDF
Flight info
| Callsign | UAL58 |
|---|---|
| Flight time | N/A |
| Altitude | 35000 |
| Route | SNTNA2 DEDHD DCT ILA DCT BKE/N0474F370 DCT STIGS J540 YQL Q896 MEETO DCT 58N100W 63N090W/N0489F390 66N080W 6730N07000W/M084F390 DCT CANEL DCT 68N060W 68N050W 6730N04000W 66N030W 64N020W/M084F410 DCT RATSU/N0490F410 DCT BARKU DCT GODOS DCT AMGOD DCT PETIK DCT SOGPO DCT DIXAT DIXAT1A |
| Aircraft | B772/H-SDE2E3FGHIJ5LORVWXY/LB1D1 |
Departure
| Time | N/A |
|---|---|
| Airport | San Francisco International Airport (KSFO) |
Arrival
| Time | 2026-05-04 13:41 |
|---|---|
| Airport | Frankfurt Main Airport (EDDF) |
| Time | Latitude | Longitude | Altitude | Speed | Heading |
|---|---|---|---|---|---|
| 2026-05-04 12:37 | 54.78537 | 1.29645 | 41071 ft | 490 kts | 141° |
| 2026-05-04 12:37 | 54.75921 | 1.33459 | 41071 ft | 490 kts | 141° |
| 2026-05-04 12:38 | 54.70706 | 1.41042 | 41070 ft | 490 kts | 141° |
| 2026-05-04 12:38 | 54.65486 | 1.48606 | 41074 ft | 489 kts | 141° |
| 2026-05-04 12:39 | 54.60270 | 1.56138 | 41067 ft | 489 kts | 141° |
| 2026-05-04 12:39 | 54.55073 | 1.63617 | 41067 ft | 489 kts | 141° |
| 2026-05-04 12:40 | 54.49852 | 1.71104 | 41072 ft | 489 kts | 141° |
| 2026-05-04 12:40 | 54.44618 | 1.78584 | 41067 ft | 489 kts | 141° |
| 2026-05-04 12:41 | 54.39384 | 1.86037 | 41068 ft | 489 kts | 142° |
| 2026-05-04 12:41 | 54.34140 | 1.93481 | 41065 ft | 489 kts | 142° |
| 2026-05-04 12:42 | 54.28891 | 2.00905 | 41064 ft | 489 kts | 142° |
| 2026-05-04 12:42 | 54.23675 | 2.08259 | 41066 ft | 489 kts | 142° |
| 2026-05-04 12:43 | 54.18426 | 2.15635 | 41070 ft | 488 kts | 142° |
| 2026-05-04 12:43 | 54.13171 | 2.22992 | 41069 ft | 488 kts | 142° |
| 2026-05-04 12:44 | 54.07919 | 2.30321 | 41055 ft | 488 kts | 142° |
| 2026-05-04 12:44 | 54.02662 | 2.37631 | 41061 ft | 487 kts | 142° |
| 2026-05-04 12:45 | 53.97407 | 2.44915 | 41058 ft | 487 kts | 142° |
| 2026-05-04 12:45 | 53.92152 | 2.52174 | 41052 ft | 487 kts | 142° |
| 2026-05-04 12:46 | 53.86926 | 2.59370 | 41043 ft | 486 kts | 142° |
| 2026-05-04 12:46 | 53.81668 | 2.66585 | 41045 ft | 486 kts | 143° |
| 2026-05-04 12:47 | 53.76399 | 2.73793 | 41041 ft | 486 kts | 143° |
| 2026-05-04 12:47 | 53.71490 | 2.80485 | 41041 ft | 486 kts | 143° |
| 2026-05-04 12:48 | 53.66221 | 2.87644 | 41037 ft | 486 kts | 143° |
| 2026-05-04 12:48 | 53.60978 | 2.94747 | 41038 ft | 486 kts | 143° |
| 2026-05-04 12:49 | 53.55699 | 3.01873 | 41037 ft | 486 kts | 143° |
| 2026-05-04 12:49 | 53.50416 | 3.08982 | 41033 ft | 486 kts | 143° |
| 2026-05-04 12:50 | 53.45135 | 3.16066 | 41031 ft | 486 kts | 143° |
| 2026-05-04 12:50 | 53.39851 | 3.23130 | 41028 ft | 486 kts | 143° |
| 2026-05-04 12:51 | 53.34560 | 3.30182 | 41041 ft | 486 kts | 143° |
| 2026-05-04 12:51 | 53.29269 | 3.37213 | 41027 ft | 486 kts | 143° |
| 2026-05-04 12:52 | 53.24827 | 3.42952 | 41023 ft | 485 kts | 147° |
| 2026-05-04 12:52 | 53.18078 | 3.49496 | 41036 ft | 482 kts | 153° |
| 2026-05-04 12:53 | 53.12193 | 3.54872 | 41035 ft | 482 kts | 153° |
| 2026-05-04 12:53 | 53.07315 | 3.59395 | 41026 ft | 482 kts | 153° |
| 2026-05-04 12:54 | 53.01446 | 3.64848 | 41031 ft | 482 kts | 153° |
| 2026-05-04 12:54 | 52.94962 | 3.72063 | 41010 ft | 486 kts | 141° |
| 2026-05-04 12:55 | 52.90768 | 3.78360 | 41013 ft | 486 kts | 140° |
| 2026-05-04 12:55 | 52.85765 | 3.85907 | 41017 ft | 486 kts | 140° |
| 2026-05-04 12:56 | 52.80765 | 3.93334 | 41017 ft | 486 kts | 140° |
| 2026-05-04 12:56 | 52.75725 | 4.00758 | 41001 ft | 485 kts | 140° |
| 2026-05-04 12:57 | 52.70677 | 4.08174 | 40998 ft | 486 kts | 141° |
| 2026-05-04 12:57 | 52.65628 | 4.15575 | 40998 ft | 486 kts | 140° |
| 2026-05-04 12:58 | 52.61139 | 4.23932 | 41000 ft | 490 kts | 128° |
| 2026-05-04 12:58 | 52.57675 | 4.33645 | 40999 ft | 493 kts | 119° |
| 2026-05-04 12:59 | 52.54620 | 4.43759 | 40986 ft | 494 kts | 118° |
| 2026-05-04 12:59 | 52.51547 | 4.53878 | 40983 ft | 494 kts | 119° |
| 2026-05-04 13:00 | 52.48459 | 4.63883 | 40980 ft | 495 kts | 119° |
| 2026-05-04 13:00 | 52.45326 | 4.73941 | 40995 ft | 495 kts | 119° |
| 2026-05-04 13:01 | 52.42181 | 4.83989 | 40987 ft | 495 kts | 120° |
| 2026-05-04 13:01 | 52.39036 | 4.94003 | 40994 ft | 494 kts | 120° |
| 2026-05-04 13:02 | 52.35887 | 5.03990 | 40984 ft | 493 kts | 120° |
| 2026-05-04 13:02 | 52.32735 | 5.13945 | 40981 ft | 492 kts | 120° |
| 2026-05-04 13:03 | 52.29579 | 5.23872 | 40985 ft | 491 kts | 120° |
| 2026-05-04 13:03 | 52.26421 | 5.33768 | 40987 ft | 491 kts | 120° |
| 2026-05-04 13:04 | 52.23337 | 5.43391 | 40977 ft | 490 kts | 121° |
| 2026-05-04 13:04 | 52.20187 | 5.53182 | 40981 ft | 490 kts | 121° |
| 2026-05-04 13:05 | 52.16993 | 5.63071 | 40973 ft | 490 kts | 121° |
| 2026-05-04 13:05 | 52.13831 | 5.72821 | 40958 ft | 490 kts | 121° |
| 2026-05-04 13:06 | 52.10641 | 5.82621 | 40965 ft | 489 kts | 121° |
| 2026-05-04 13:06 | 52.07444 | 5.92402 | 40958 ft | 489 kts | 121° |
| 2026-05-04 13:07 | 52.04238 | 6.02173 | 40968 ft | 490 kts | 121° |
| 2026-05-04 13:07 | 52.01027 | 6.11927 | 40979 ft | 490 kts | 121° |
| 2026-05-04 13:08 | 51.97646 | 6.21531 | 40976 ft | 487 kts | 129° |
| 2026-05-04 13:08 | 51.93235 | 6.29756 | 40977 ft | 482 kts | 141° |
| 2026-05-04 13:09 | 51.88107 | 6.36568 | 40975 ft | 479 kts | 145° |
| 2026-05-04 13:09 | 51.82864 | 6.43268 | 40975 ft | 481 kts | 145° |
| 2026-05-04 13:10 | 51.77629 | 6.50011 | 40986 ft | 482 kts | 144° |
| 2026-05-04 13:10 | 51.72393 | 6.56790 | 40978 ft | 483 kts | 144° |
| 2026-05-04 13:11 | 51.67147 | 6.63573 | 40977 ft | 483 kts | 144° |
| 2026-05-04 13:11 | 51.61892 | 6.70346 | 40978 ft | 484 kts | 144° |
| 2026-05-04 13:12 | 51.56626 | 6.77107 | 40981 ft | 483 kts | 144° |
| 2026-05-04 13:12 | 51.51399 | 6.83800 | 40861 ft | 485 kts | 144° |
| 2026-05-04 13:12 | 51.48734 | 6.87200 | 40185 ft | 489 kts | 145° |
| 2026-05-04 13:13 | 51.46081 | 6.90586 | 39458 ft | 487 kts | 145° |
| 2026-05-04 13:13 | 51.43428 | 6.93966 | 38695 ft | 486 kts | 146° |
| 2026-05-04 13:13 | 51.40778 | 6.97337 | 37740 ft | 485 kts | 146° |
| 2026-05-04 13:13 | 51.38144 | 7.00684 | 36887 ft | 481 kts | 146° |
| 2026-05-04 13:14 | 51.35538 | 7.03989 | 36043 ft | 477 kts | 147° |
| 2026-05-04 13:14 | 51.32935 | 7.07283 | 35147 ft | 476 kts | 147° |
| 2026-05-04 13:14 | 51.30345 | 7.10556 | 34164 ft | 469 kts | 148° |
| 2026-05-04 13:14 | 51.27832 | 7.13737 | 33041 ft | 453 kts | 148° |
| 2026-05-04 13:15 | 51.25314 | 7.16572 | 31958 ft | 432 kts | 156° |
| 2026-05-04 13:15 | 51.22659 | 7.18659 | 30973 ft | 424 kts | 161° |
| 2026-05-04 13:15 | 51.19952 | 7.20594 | 30255 ft | 443 kts | 161° |
| 2026-05-04 13:15 | 51.17102 | 7.22718 | 29358 ft | 453 kts | 159° |
| 2026-05-04 13:16 | 51.14293 | 7.24923 | 28520 ft | 448 kts | 158° |
| 2026-05-04 13:16 | 51.11530 | 7.27129 | 27740 ft | 441 kts | 158° |
| 2026-05-04 13:16 | 51.08819 | 7.29356 | 26984 ft | 435 kts | 156° |
| 2026-05-04 13:16 | 51.06151 | 7.31574 | 26225 ft | 430 kts | 156° |
| 2026-05-04 13:17 | 51.03509 | 7.33763 | 25574 ft | 425 kts | 156° |
| 2026-05-04 13:17 | 51.00867 | 7.35941 | 25013 ft | 429 kts | 156° |
| 2026-05-04 13:17 | 50.98195 | 7.38136 | 24426 ft | 433 kts | 156° |
| 2026-05-04 13:17 | 50.95556 | 7.40305 | 23843 ft | 432 kts | 156° |
| 2026-05-04 13:18 | 50.92866 | 7.42516 | 23180 ft | 429 kts | 156° |
| 2026-05-04 13:18 | 50.90263 | 7.44651 | 22535 ft | 425 kts | 156° |
| 2026-05-04 13:18 | 50.87650 | 7.46791 | 21943 ft | 420 kts | 155° |
| 2026-05-04 13:18 | 50.85066 | 7.48904 | 21365 ft | 416 kts | 155° |
| 2026-05-04 13:19 | 50.82505 | 7.50995 | 20793 ft | 412 kts | 155° |
| 2026-05-04 13:19 | 50.79971 | 7.53061 | 20231 ft | 408 kts | 155° |
| 2026-05-04 13:19 | 50.77451 | 7.55114 | 19682 ft | 405 kts | 155° |
| 2026-05-04 13:19 | 50.74948 | 7.57151 | 19137 ft | 402 kts | 155° |
| 2026-05-04 13:20 | 50.72466 | 7.59168 | 18601 ft | 400 kts | 155° |
| 2026-05-04 13:20 | 50.69992 | 7.61175 | 18019 ft | 398 kts | 155° |
| 2026-05-04 13:20 | 50.67563 | 7.63145 | 17494 ft | 394 kts | 155° |
| 2026-05-04 13:20 | 50.65140 | 7.65107 | 17005 ft | 390 kts | 155° |
| 2026-05-04 13:21 | 50.62740 | 7.67049 | 16520 ft | 386 kts | 155° |
| 2026-05-04 13:21 | 50.60363 | 7.68968 | 16065 ft | 382 kts | 155° |
| 2026-05-04 13:21 | 50.58005 | 7.70871 | 15617 ft | 378 kts | 155° |
| 2026-05-04 13:21 | 50.55673 | 7.72749 | 15198 ft | 375 kts | 155° |
| 2026-05-04 13:22 | 50.53354 | 7.74614 | 14788 ft | 373 kts | 155° |
| 2026-05-04 13:22 | 50.51047 | 7.76468 | 14386 ft | 371 kts | 155° |
| 2026-05-04 13:22 | 50.48756 | 7.78308 | 13943 ft | 370 kts | 155° |
| 2026-05-04 13:22 | 50.46468 | 7.80144 | 13514 ft | 368 kts | 155° |
| 2026-05-04 13:23 | 50.44189 | 7.81970 | 13068 ft | 367 kts | 154° |
| 2026-05-04 13:23 | 50.42049 | 7.83990 | 12695 ft | 362 kts | 146° |
| 2026-05-04 13:23 | 50.40066 | 7.86418 | 12365 ft | 361 kts | 142° |
| 2026-05-04 13:23 | 50.38139 | 7.88950 | 12000 ft | 365 kts | 142° |
| 2026-05-04 13:24 | 50.36191 | 7.91490 | 11701 ft | 362 kts | 142° |
| 2026-05-04 13:24 | 50.34261 | 7.93954 | 11349 ft | 354 kts | 143° |
| 2026-05-04 13:24 | 50.32356 | 7.96342 | 11000 ft | 346 kts | 143° |
| 2026-05-04 13:25 | 50.28659 | 8.00917 | 10360 ft | 330 kts | 144° |
| 2026-05-04 13:25 | 50.26883 | 8.03110 | 10100 ft | 321 kts | 143° |
| 2026-05-04 13:25 | 50.25364 | 8.05496 | 9998 ft | 303 kts | 126° |
| 2026-05-04 13:25 | 50.24599 | 8.08486 | 9991 ft | 292 kts | 102° |
| 2026-05-04 13:26 | 50.24437 | 8.11595 | 9981 ft | 283 kts | 95° |
| 2026-05-04 13:26 | 50.24410 | 8.14662 | 9986 ft | 281 kts | 94° |
| 2026-05-04 13:26 | 50.24401 | 8.17718 | 9954 ft | 283 kts | 94° |
| 2026-05-04 13:26 | 50.24389 | 8.20820 | 9720 ft | 287 kts | 94° |
| 2026-05-04 13:27 | 50.24381 | 8.23904 | 9450 ft | 286 kts | 93° |
| 2026-05-04 13:27 | 50.24374 | 8.26999 | 9175 ft | 282 kts | 93° |
| 2026-05-04 13:27 | 50.24367 | 8.30046 | 8890 ft | 279 kts | 93° |
| 2026-05-04 13:27 | 50.24343 | 8.33065 | 8636 ft | 278 kts | 93° |
| 2026-05-04 13:28 | 50.24310 | 8.36093 | 8386 ft | 279 kts | 93° |
| 2026-05-04 13:28 | 50.24273 | 8.39132 | 8137 ft | 280 kts | 93° |
| 2026-05-04 13:28 | 50.24232 | 8.42176 | 7889 ft | 281 kts | 93° |
| 2026-05-04 13:28 | 50.24186 | 8.45230 | 7645 ft | 280 kts | 93° |
| 2026-05-04 13:29 | 50.24135 | 8.48257 | 7375 ft | 277 kts | 93° |
| 2026-05-04 13:29 | 50.24080 | 8.51241 | 7129 ft | 274 kts | 93° |
| 2026-05-04 13:29 | 50.24021 | 8.54190 | 7051 ft | 270 kts | 93° |
| 2026-05-04 13:29 | 50.23958 | 8.57146 | 7011 ft | 275 kts | 94° |
| 2026-05-04 13:30 | 50.23895 | 8.60160 | 7002 ft | 278 kts | 94° |
| 2026-05-04 13:30 | 50.23832 | 8.63127 | 6993 ft | 278 kts | 93° |
| 2026-05-04 13:30 | 50.23769 | 8.66192 | 6988 ft | 277 kts | 93° |
| 2026-05-04 13:30 | 50.23706 | 8.69200 | 6987 ft | 277 kts | 93° |
| 2026-05-04 13:31 | 50.23639 | 8.72209 | 6988 ft | 276 kts | 94° |
| 2026-05-04 13:31 | 50.23572 | 8.75204 | 6981 ft | 276 kts | 94° |
| 2026-05-04 13:31 | 50.23507 | 8.78173 | 6956 ft | 278 kts | 93° |
| 2026-05-04 13:31 | 50.23436 | 8.81226 | 6727 ft | 283 kts | 93° |
| 2026-05-04 13:32 | 50.23360 | 8.84286 | 6477 ft | 281 kts | 93° |
| 2026-05-04 13:32 | 50.23299 | 8.86582 | 6293 ft | 278 kts | 94° |
| 2026-05-04 13:32 | 50.23185 | 8.89427 | 6035 ft | 271 kts | 100° |
| 2026-05-04 13:33 | 50.22511 | 8.92111 | 5750 ft | 264 kts | 129° |
| 2026-05-04 13:33 | 50.21147 | 8.93908 | 5507 ft | 252 kts | 156° |
| 2026-05-04 13:33 | 50.19550 | 8.94958 | 5262 ft | 248 kts | 162° |
| 2026-05-04 13:33 | 50.17968 | 8.95855 | 5060 ft | 235 kts | 163° |
| 2026-05-04 13:34 | 50.16461 | 8.96704 | 5016 ft | 225 kts | 163° |
| 2026-05-04 13:34 | 50.15012 | 8.97192 | 4961 ft | 202 kts | 188° |
| 2026-05-04 13:34 | 50.13812 | 8.96430 | 4966 ft | 182 kts | 229° |
| 2026-05-04 13:34 | 50.13113 | 8.94758 | 5001 ft | 185 kts | 242° |
| 2026-05-04 13:35 | 50.12504 | 8.92997 | 4919 ft | 186 kts | 242° |
| 2026-05-04 13:35 | 50.11381 | 8.89435 | 4477 ft | 181 kts | 248° |
| 2026-05-04 13:35 | 50.10915 | 8.87621 | 4219 ft | 179 kts | 249° |
| 2026-05-04 13:36 | 50.10477 | 8.85824 | 3974 ft | 175 kts | 249° |
| 2026-05-04 13:36 | 50.10056 | 8.84066 | 3753 ft | 174 kts | 250° |
| 2026-05-04 13:36 | 50.09642 | 8.82333 | 3518 ft | 172 kts | 249° |
| 2026-05-04 13:36 | 50.09233 | 8.80611 | 3308 ft | 168 kts | 249° |
| 2026-05-04 13:37 | 50.08829 | 8.78912 | 3080 ft | 166 kts | 249° |
| 2026-05-04 13:37 | 50.08432 | 8.77241 | 2850 ft | 165 kts | 248° |
| 2026-05-04 13:37 | 50.08039 | 8.75590 | 2633 ft | 159 kts | 249° |
| 2026-05-04 13:37 | 50.07786 | 8.74525 | 2490 ft | 152 kts | 249° |
| 2026-05-04 13:38 | 50.07315 | 8.72551 | 2232 ft | 147 kts | 248° |
| 2026-05-04 13:38 | 50.06960 | 8.71056 | 2053 ft | 148 kts | 249° |
| 2026-05-04 13:38 | 50.06606 | 8.69569 | 1845 ft | 146 kts | 249° |
| 2026-05-04 13:38 | 50.06266 | 8.68141 | 1649 ft | 135 kts | 249° |
| 2026-05-04 13:39 | 50.06053 | 8.67246 | 1572 ft | 134 kts | 249° |
| 2026-05-04 13:39 | 50.05729 | 8.65883 | 1363 ft | 131 kts | 248° |
| 2026-05-04 13:39 | 50.05409 | 8.64544 | 1197 ft | 133 kts | 250° |
| 2026-05-04 13:39 | 50.04982 | 8.62751 | 947 ft | 136 kts | 249° |
| 2026-05-04 13:40 | 50.04771 | 8.61811 | 841 ft | 135 kts | 250° |
| 2026-05-04 13:40 | 50.04440 | 8.60443 | 679 ft | 132 kts | 246° |
| 2026-05-04 13:40 | 50.04115 | 8.59100 | 477 ft | 133 kts | 246° |
| 2026-05-04 13:40 | 50.03794 | 8.57752 | 373 ft | 128 kts | 246° |
| 2026-05-04 13:41 | 50.03529 | 8.56663 | 364 ft | 86 kts | 250° |
| 2026-05-04 13:41 | 50.03391 | 8.56072 | 362 ft | 41 kts | 249° |
| 2026-05-04 13:41 | 50.03315 | 8.55751 | 357 ft | 29 kts | 256° |
| 2026-05-04 13:42 | 50.03332 | 8.55329 | 355 ft | 10 kts | 280° |
| 2026-05-04 13:42 | 50.03344 | 8.55226 | 352 ft | 10 kts | 280° |
| 2026-05-04 13:42 | 50.03356 | 8.55122 | 352 ft | 10 kts | 280° |
| 2026-05-04 13:42 | 50.03366 | 8.55015 | 350 ft | 10 kts | 272° |
| 2026-05-04 13:43 | 50.03359 | 8.54908 | 355 ft | 10 kts | 252° |
| 2026-05-04 13:43 | 50.03331 | 8.54800 | 353 ft | 11 kts | 248° |
| 2026-05-04 13:43 | 50.03302 | 8.54681 | 354 ft | 12 kts | 250° |
| 2026-05-04 13:43 | 50.03277 | 8.54574 | 352 ft | 9 kts | 251° |
| 2026-05-04 13:44 | 50.03301 | 8.54491 | 350 ft | 9 kts | 327° |
| 2026-05-04 13:44 | 50.03351 | 8.54458 | 355 ft | 7 kts | 340° |
| 2026-05-04 13:44 | 50.03372 | 8.54446 | 350 ft | 0 kts | 341° |
| 2026-05-04 13:44 | 50.03397 | 8.54433 | 350 ft | 6 kts | 340° |
| 2026-05-04 13:45 | 50.03435 | 8.54412 | 357 ft | 6 kts | 340° |
| 2026-05-04 13:45 | 50.03472 | 8.54391 | 352 ft | 6 kts | 340° |
| 2026-05-04 13:45 | 50.03510 | 8.54369 | 356 ft | 6 kts | 339° |
| 2026-05-04 13:45 | 50.03552 | 8.54345 | 351 ft | 8 kts | 339° |
| 2026-05-04 13:46 | 50.03606 | 8.54313 | 351 ft | 8 kts | 340° |
| 2026-05-04 13:46 | 50.03625 | 8.54308 | 354 ft | 0 kts | 358° |
| 2026-05-04 13:46 | 50.03626 | 8.54308 | 354 ft | 1 kts | 358° |
| 2026-05-04 13:47 | 50.03640 | 8.54312 | 353 ft | 0 kts | 12° |
| 2026-05-04 13:47 | 50.03654 | 8.54324 | 357 ft | 10 kts | 37° |
| 2026-05-04 13:47 | 50.03687 | 8.54437 | 353 ft | 12 kts | 70° |
| 2026-05-04 13:47 | 50.03714 | 8.54554 | 357 ft | 12 kts | 70° |
| 2026-05-04 13:48 | 50.03742 | 8.54672 | 358 ft | 12 kts | 69° |
| 2026-05-04 13:48 | 50.03771 | 8.54788 | 358 ft | 12 kts | 69° |
| 2026-05-04 13:48 | 50.03799 | 8.54906 | 362 ft | 12 kts | 70° |
| 2026-05-04 13:48 | 50.03835 | 8.55016 | 362 ft | 12 kts | 40° |
| 2026-05-04 13:49 | 50.03905 | 8.55010 | 360 ft | 10 kts | 338° |
| 2026-05-04 13:49 | 50.03962 | 8.54975 | 366 ft | 8 kts | 338° |
| 2026-05-04 13:49 | 50.03994 | 8.54908 | 359 ft | 8 kts | 263° |
| 2026-05-04 13:49 | 50.03975 | 8.54830 | 362 ft | 8 kts | 249° |
| 2026-05-04 13:50 | 50.03958 | 8.54768 | 362 ft | 6 kts | 245° |
| 2026-05-04 13:50 | 50.03920 | 8.54752 | 363 ft | 5 kts | 157° |
| 2026-05-04 13:50 | 50.03895 | 8.54770 | 361 ft | 3 kts | 156° |
| 2026-05-04 13:50 | 50.03880 | 8.54780 | 360 ft | 1 kts | 159° |
| 2026-05-04 13:51 | 50.03873 | 8.54784 | 364 ft | 1 kts | 159° |
| 2026-05-04 13:51 | 50.03869 | 8.54786 | 363 ft | 0 kts | 160° |